sensor_id;sensor_type;location;lat;lon;timestamp;temperature;humidity
4896;DHT22;2463;49.948;8.472;2022-11-11T00:01:04;5.80;99.90
4896;DHT22;2463;49.948;8.472;2022-11-11T00:03:31;5.80;99.90
4896;DHT22;2463;49.948;8.472;2022-11-11T00:06:03;5.80;99.90
4896;DHT22;2463;49.948;8.472;2022-11-11T00:08:30;5.80;99.90
4896;DHT22;2463;49.948;8.472;2022-11-11T00:11:05;5.70;99.90
4896;DHT22;2463;49.948;8.472;2022-11-11T00:13:32;5.70;99.90
4896;DHT22;2463;49.948;8.472;2022-11-11T00:16:11;5.80;99.90
4896;DHT22;2463;49.948;8.472;2022-11-11T00:18:38;5.80;99.90
4896;DHT22;2463;49.948;8.472;2022-11-11T00:21:24;5.80;99.90
4896;DHT22;2463;49.948;8.472;2022-11-11T00:23:54;5.80;99.90
4896;DHT22;2463;49.948;8.472;2022-11-11T00:26:39;5.80;99.90
4896;DHT22;2463;49.948;8.472;2022-11-11T00:29:06;5.70;99.90
4896;DHT22;2463;49.948;8.472;2022-11-11T00:31:34;5.70;99.90
4896;DHT22;2463;49.948;8.472;2022-11-11T00:34:01;5.60;99.90
4896;DHT22;2463;49.948;8.472;2022-11-11T00:36:27;5.60;99.90
4896;DHT22;2463;49.948;8.472;2022-11-11T00:38:54;5.60;99.90
4896;DHT22;2463;49.948;8.472;2022-11-11T00:41:23;5.50;99.90
4896;DHT22;2463;49.948;8.472;2022-11-11T00:43:52;5.50;99.90
4896;DHT22;2463;49.948;8.472;2022-11-11T00:46:19;5.50;99.90
4896;DHT22;2463;49.948;8.472;2022-11-11T00:49:04;5.40;99.90
4896;DHT22;2463;49.948;8.472;2022-11-11T00:51:49;5.40;99.90
4896;DHT22;2463;49.948;8.472;2022-11-11T00:54:16;5.40;99.90
4896;DHT22;2463;49.948;8.472;2022-11-11T00:56:43;5.30;99.90
4896;DHT22;2463;49.948;8.472;2022-11-11T00:59:10;5.30;99.90
4896;DHT22;2463;49.948;8.472;2022-11-11T01:01:37;5.30;99.90
4896;DHT22;2463;49.948;8.472;2022-11-11T01:04:04;5.20;99.90
4896;DHT22;2463;49.948;8.472;2022-11-11T01:06:31;5.20;99.90
4896;DHT22;2463;49.948;8.472;2022-11-11T01:09:04;5.20;99.90
4896;DHT22;2463;49.948;8.472;2022-11-11T01:11:30;5.10;99.90
4896;DHT22;2463;49.948;8.472;2022-11-11T01:13:57;5.10;99.90
4896;DHT22;2463;49.948;8.472;2022-11-11T01:16:25;5.10;99.90
4896;DHT22;2463;49.948;8.472;2022-11-11T01:18:53;5.10;99.90
4896;DHT22;2463;49.948;8.472;2022-11-11T01:21:24;5.10;99.90
4896;DHT22;2463;49.948;8.472;2022-11-11T01:23:52;4.90;99.90
4896;DHT22;2463;49.948;8.472;2022-11-11T01:26:27;4.90;99.90
4896;DHT22;2463;49.948;8.472;2022-11-11T01:28:57;4.90;99.90
4896;DHT22;2463;49.948;8.472;2022-11-11T01:31:25;4.90;99.90
4896;DHT22;2463;49.948;8.472;2022-11-11T01:33:52;4.80;99.90
4896;DHT22;2463;49.948;8.472;2022-11-11T01:36:25;4.80;99.90
4896;DHT22;2463;49.948;8.472;2022-11-11T01:38:54;4.80;99.90
4896;DHT22;2463;49.948;8.472;2022-11-11T01:41:27;4.90;99.90
4896;DHT22;2463;49.948;8.472;2022-11-11T01:44:02;4.90;99.90
4896;DHT22;2463;49.948;8.472;2022-11-11T01:46:40;4.90;99.90
4896;DHT22;2463;49.948;8.472;2022-11-11T01:54:35;4.70;99.90
4896;DHT22;2463;49.948;8.472;2022-11-11T01:57:33;4.70;99.90
4896;DHT22;2463;49.948;8.472;2022-11-11T02:00:08;4.70;99.90
4896;DHT22;2463;49.948;8.472;2022-11-11T02:02:58;4.70;99.90
4896;DHT22;2463;49.948;8.472;2022-11-11T02:05:27;4.70;99.90
4896;DHT22;2463;49.948;8.472;2022-11-11T02:08:20;4.80;99.90
4896;DHT22;2463;49.948;8.472;2022-11-11T02:11:13;4.80;99.90
4896;DHT22;2463;49.948;8.472;2022-11-11T02:13:42;4.80;99.90
4896;DHT22;2463;49.948;8.472;2022-11-11T02:16:28;4.80;99.90
4896;DHT22;2463;49.948;8.472;2022-11-11T02:18:55;4.90;99.90
4896;DHT22;2463;49.948;8.472;2022-11-11T02:21:29;4.10;99.90
4896;DHT22;2463;49.948;8.472;2022-11-11T02:24:24;5.00;99.90
4896;DHT22;2463;49.948;8.472;2022-11-11T02:26:53;5.00;99.90
4896;DHT22;2463;49.948;8.472;2022-11-11T02:29:24;5.00;99.90
4896;DHT22;2463;49.948;8.472;2022-11-11T02:31:51;5.00;99.90
4896;DHT22;2463;49.948;8.472;2022-11-11T02:34:18;5.00;99.90
4896;DHT22;2463;49.948;8.472;2022-11-11T02:36:45;5.00;99.90
4896;DHT22;2463;49.948;8.472;2022-11-11T02:39:12;5.00;99.90
4896;DHT22;2463;49.948;8.472;2022-11-11T02:41:46;5.00;99.90
4896;DHT22;2463;49.948;8.472;2022-11-11T02:44:25;5.10;99.90
4896;DHT22;2463;49.948;8.472;2022-11-11T02:46:52;5.20;99.90
4896;DHT22;2463;49.948;8.472;2022-11-11T02:49:19;5.20;99.90
4896;DHT22;2463;49.948;8.472;2022-11-11T02:51:46;5.30;99.90
4896;DHT22;2463;49.948;8.472;2022-11-11T02:54:14;5.30;99.90
4896;DHT22;2463;49.948;8.472;2022-11-11T02:56:41;5.40;99.90
4896;DHT22;2463;49.948;8.472;2022-11-11T02:59:26;5.40;99.90
4896;DHT22;2463;49.948;8.472;2022-11-11T03:01:53;5.50;99.90
4896;DHT22;2463;49.948;8.472;2022-11-11T03:04:19;5.60;99.90
4896;DHT22;2463;49.948;8.472;2022-11-11T03:06:46;5.70;99.90
4896;DHT22;2463;49.948;8.472;2022-11-11T03:09:13;5.70;99.90
4896;DHT22;2463;49.948;8.472;2022-11-11T03:11:40;5.80;99.90
4896;DHT22;2463;49.948;8.472;2022-11-11T03:14:06;5.90;99.90
4896;DHT22;2463;49.948;8.472;2022-11-11T03:16:33;6.00;99.90
4896;DHT22;2463;49.948;8.472;2022-11-11T03:19:19;6.10;99.90
4896;DHT22;2463;49.948;8.472;2022-11-11T03:21:46;6.20;99.90
4896;DHT22;2463;49.948;8.472;2022-11-11T03:24:32;6.20;99.90
4896;DHT22;2463;49.948;8.472;2022-11-11T03:27:18;6.30;99.90
4896;DHT22;2463;49.948;8.472;2022-11-11T03:29:44;6.40;99.90
4896;DHT22;2463;49.948;8.472;2022-11-11T03:32:11;6.40;99.90
4896;DHT22;2463;49.948;8.472;2022-11-11T03:34:38;6.40;99.90
4896;DHT22;2463;49.948;8.472;2022-11-11T03:37:07;6.50;99.90
4896;DHT22;2463;49.948;8.472;2022-11-11T03:39:52;6.50;99.90
4896;DHT22;2463;49.948;8.472;2022-11-11T03:42:19;6.60;99.90
4896;DHT22;2463;49.948;8.472;2022-11-11T03:44:46;6.60;99.90
4896;DHT22;2463;49.948;8.472;2022-11-11T03:47:12;6.80;99.90
4896;DHT22;2463;49.948;8.472;2022-11-11T03:49:41;6.70;99.90
4896;DHT22;2463;49.948;8.472;2022-11-11T03:52:11;6.80;99.90
4896;DHT22;2463;49.948;8.472;2022-11-11T03:54:38;6.80;99.90
4896;DHT22;2463;49.948;8.472;2022-11-11T03:57:05;6.80;99.90
4896;DHT22;2463;49.948;8.472;2022-11-11T03:59:50;6.80;99.90
4896;DHT22;2463;49.948;8.472;2022-11-11T04:02:17;6.90;99.90
4896;DHT22;2463;49.948;8.472;2022-11-11T04:05:02;6.90;99.90
4896;DHT22;2463;49.948;8.472;2022-11-11T04:07:49;6.30;99.90
4896;DHT22;2463;49.948;8.472;2022-11-11T04:10:35;6.90;99.90
4896;DHT22;2463;49.948;8.472;2022-11-11T04:13:02;6.90;99.90
4896;DHT22;2463;49.948;8.472;2022-11-11T04:15:49;6.90;99.90
4896;DHT22;2463;49.948;8.472;2022-11-11T04:18:32;6.90;99.90
4896;DHT22;2463;49.948;8.472;2022-11-11T04:21:17;7.00;99.90
4896;DHT22;2463;49.948;8.472;2022-11-11T04:24:04;7.00;99.90
4896;DHT22;2463;49.948;8.472;2022-11-11T04:26:53;7.10;99.90
4896;DHT22;2463;49.948;8.472;2022-11-11T04:29:21;7.10;99.90
4896;DHT22;2463;49.948;8.472;2022-11-11T04:34:41;7.20;99.90
4896;DHT22;2463;49.948;8.472;2022-11-11T04:37:07;7.20;99.90
4896;DHT22;2463;49.948;8.472;2022-11-11T04:39:34;7.10;99.90
4896;DHT22;2463;49.948;8.472;2022-11-11T04:42:20;7.10;99.90
4896;DHT22;2463;49.948;8.472;2022-11-11T04:44:47;7.10;99.90
4896;DHT22;2463;49.948;8.472;2022-11-11T04:47:32;7.10;99.90
4896;DHT22;2463;49.948;8.472;2022-11-11T04:49:59;7.10;99.90
4896;DHT22;2463;49.948;8.472;2022-11-11T04:52:32;7.10;99.90
4896;DHT22;2463;49.948;8.472;2022-11-11T04:54:59;7.20;99.90
4896;DHT22;2463;49.948;8.472;2022-11-11T04:57:47;7.20;99.90
4896;DHT22;2463;49.948;8.472;2022-11-11T05:00:16;7.20;99.90
4896;DHT22;2463;49.948;8.472;2022-11-11T05:02:44;7.10;99.90
4896;DHT22;2463;49.948;8.472;2022-11-11T05:05:30;7.10;99.90
4896;DHT22;2463;49.948;8.472;2022-11-11T05:08:19;7.10;99.90
4896;DHT22;2463;49.948;8.472;2022-11-11T05:11:05;7.00;99.90
4896;DHT22;2463;49.948;8.472;2022-11-11T05:13:31;7.00;99.90
4896;DHT22;2463;49.948;8.472;2022-11-11T05:16:20;6.90;99.90
4896;DHT22;2463;49.948;8.472;2022-11-11T05:19:10;6.90;99.90
4896;DHT22;2463;49.948;8.472;2022-11-11T05:22:00;6.80;99.90
4896;DHT22;2463;49.948;8.472;2022-11-11T05:24:28;6.80;99.90
4896;DHT22;2463;49.948;8.472;2022-11-11T05:27:13;6.90;99.90
4896;DHT22;2463;49.948;8.472;2022-11-11T05:29:39;6.90;99.90
4896;DHT22;2463;49.948;8.472;2022-11-11T05:32:07;6.90;99.90
4896;DHT22;2463;49.948;8.472;2022-11-11T05:34:33;6.90;99.90
4896;DHT22;2463;49.948;8.472;2022-11-11T05:37:00;7.00;99.90
4896;DHT22;2463;49.948;8.472;2022-11-11T05:39:27;7.00;99.90
4896;DHT22;2463;49.948;8.472;2022-11-11T05:41:53;7.00;99.90
4896;DHT22;2463;49.948;8.472;2022-11-11T05:44:20;7.00;99.90
4896;DHT22;2463;49.948;8.472;2022-11-11T05:46:47;7.00;99.90
4896;DHT22;2463;49.948;8.472;2022-11-11T05:49:13;6.90;99.90
4896;DHT22;2463;49.948;8.472;2022-11-11T05:51:41;6.90;99.90
4896;DHT22;2463;49.948;8.472;2022-11-11T05:54:08;6.90;99.90
4896;DHT22;2463;49.948;8.472;2022-11-11T05:56:34;6.90;99.90
4896;DHT22;2463;49.948;8.472;2022-11-11T05:59:01;6.90;99.90
4896;DHT22;2463;49.948;8.472;2022-11-11T06:01:28;6.90;99.90
4896;DHT22;2463;49.948;8.472;2022-11-11T06:03:55;6.90;99.90
4896;DHT22;2463;49.948;8.472;2022-11-11T06:06:22;6.90;99.90
4896;DHT22;2463;49.948;8.472;2022-11-11T06:08:49;6.90;99.90
4896;DHT22;2463;49.948;8.472;2022-11-11T06:11:16;6.80;99.90
4896;DHT22;2463;49.948;8.472;2022-11-11T06:13:42;6.80;99.90
4896;DHT22;2463;49.948;8.472;2022-11-11T06:16:09;6.70;99.90
4896;DHT22;2463;49.948;8.472;2022-11-11T06:18:36;5.80;99.90
4896;DHT22;2463;49.948;8.472;2022-11-11T06:21:02;6.60;99.90
4896;DHT22;2463;49.948;8.472;2022-11-11T06:23:30;6.60;99.90
4896;DHT22;2463;49.948;8.472;2022-11-11T06:25:57;6.60;99.90
4896;DHT22;2463;49.948;8.472;2022-11-11T06:31:18;6.50;99.90
4896;DHT22;2463;49.948;8.472;2022-11-11T06:33:44;6.50;99.90
4896;DHT22;2463;49.948;8.472;2022-11-11T06:36:13;6.40;99.90
4896;DHT22;2463;49.948;8.472;2022-11-11T06:38:41;6.40;99.90
4896;DHT22;2463;49.948;8.472;2022-11-11T06:41:09;6.40;99.90
4896;DHT22;2463;49.948;8.472;2022-11-11T06:43:38;6.40;99.90
4896;DHT22;2463;49.948;8.472;2022-11-11T06:46:06;6.40;99.90
4896;DHT22;2463;49.948;8.472;2022-11-11T06:48:32;6.40;99.90
4896;DHT22;2463;49.948;8.472;2022-11-11T06:51:05;6.50;99.90
4896;DHT22;2463;49.948;8.472;2022-11-11T06:53:31;6.50;99.90
4896;DHT22;2463;49.948;8.472;2022-11-11T06:55:58;6.60;99.90
4896;DHT22;2463;49.948;8.472;2022-11-11T06:58:25;6.70;99.90
4896;DHT22;2463;49.948;8.472;2022-11-11T07:00:52;6.80;99.90
4896;DHT22;2463;49.948;8.472;2022-11-11T07:03:20;6.80;99.90
4896;DHT22;2463;49.948;8.472;2022-11-11T07:05:51;6.90;99.90
4896;DHT22;2463;49.948;8.472;2022-11-11T07:08:25;7.00;99.90
4896;DHT22;2463;49.948;8.472;2022-11-11T07:10:52;7.00;99.90
4896;DHT22;2463;49.948;8.472;2022-11-11T07:13:19;7.00;99.90
4896;DHT22;2463;49.948;8.472;2022-11-11T07:15:46;7.00;99.90
4896;DHT22;2463;49.948;8.472;2022-11-11T07:18:13;6.90;99.90
4896;DHT22;2463;49.948;8.472;2022-11-11T07:20:40;6.90;99.90
4896;DHT22;2463;49.948;8.472;2022-11-11T07:23:07;7.00;99.90
4896;DHT22;2463;49.948;8.472;2022-11-11T07:25:34;7.00;99.90
4896;DHT22;2463;49.948;8.472;2022-11-11T07:28:01;6.90;99.90
4896;DHT22;2463;49.948;8.472;2022-11-11T07:30:27;7.00;99.90
4896;DHT22;2463;49.948;8.472;2022-11-11T07:32:54;7.00;99.90
4896;DHT22;2463;49.948;8.472;2022-11-11T07:35:21;7.00;99.90
4896;DHT22;2463;49.948;8.472;2022-11-11T07:37:48;7.00;99.90
4896;DHT22;2463;49.948;8.472;2022-11-11T07:40:17;7.00;99.90
4896;DHT22;2463;49.948;8.472;2022-11-11T07:42:44;7.00;99.90
4896;DHT22;2463;49.948;8.472;2022-11-11T07:45:12;7.00;99.90
4896;DHT22;2463;49.948;8.472;2022-11-11T07:47:40;7.00;99.90
4896;DHT22;2463;49.948;8.472;2022-11-11T07:50:07;7.10;99.90
4896;DHT22;2463;49.948;8.472;2022-11-11T07:52:34;7.10;99.90
4896;DHT22;2463;49.948;8.472;2022-11-11T07:55:04;7.10;99.90
4896;DHT22;2463;49.948;8.472;2022-11-11T07:57:31;7.10;99.90
4896;DHT22;2463;49.948;8.472;2022-11-11T07:59:58;7.20;99.90
4896;DHT22;2463;49.948;8.472;2022-11-11T08:02:24;7.20;99.90
4896;DHT22;2463;49.948;8.472;2022-11-11T08:04:51;7.30;99.90
4896;DHT22;2463;49.948;8.472;2022-11-11T08:07:22;7.40;99.90
4896;DHT22;2463;49.948;8.472;2022-11-11T08:09:50;7.50;99.90
4896;DHT22;2463;49.948;8.472;2022-11-11T08:12:17;7.50;99.90
4896;DHT22;2463;49.948;8.472;2022-11-11T08:15:03;7.50;99.90
4896;DHT22;2463;49.948;8.472;2022-11-11T08:17:38;7.50;99.90
4896;DHT22;2463;49.948;8.472;2022-11-11T08:20:07;7.60;99.90
4896;DHT22;2463;49.948;8.472;2022-11-11T08:22:41;7.70;99.90
4896;DHT22;2463;49.948;8.472;2022-11-11T08:25:28;7.70;99.90
4896;DHT22;2463;49.948;8.472;2022-11-11T08:27:57;7.80;99.90
4896;DHT22;2463;49.948;8.472;2022-11-11T08:30:24;7.90;99.90
4896;DHT22;2463;49.948;8.472;2022-11-11T08:33:01;8.00;99.90
4896;DHT22;2463;49.948;8.472;2022-11-11T08:35:48;8.10;99.90
4896;DHT22;2463;49.948;8.472;2022-11-11T08:38:15;8.20;99.90
4896;DHT22;2463;49.948;8.472;2022-11-11T08:40:42;8.20;99.90
4896;DHT22;2463;49.948;8.472;2022-11-11T08:43:08;8.20;99.90
4896;DHT22;2463;49.948;8.472;2022-11-11T08:45:35;8.20;99.90
4896;DHT22;2463;49.948;8.472;2022-11-11T08:48:02;8.30;99.90
4896;DHT22;2463;49.948;8.472;2022-11-11T08:50:29;8.30;99.90
4896;DHT22;2463;49.948;8.472;2022-11-11T08:52:56;8.40;99.90
4896;DHT22;2463;49.948;8.472;2022-11-11T08:55:23;8.50;99.90
4896;DHT22;2463;49.948;8.472;2022-11-11T08:57:57;8.50;99.90
4896;DHT22;2463;49.948;8.472;2022-11-11T09:00:24;8.50;99.90
4896;DHT22;2463;49.948;8.472;2022-11-11T09:02:52;8.50;99.90
4896;DHT22;2463;49.948;8.472;2022-11-11T09:05:19;8.40;99.90
4896;DHT22;2463;49.948;8.472;2022-11-11T09:07:46;8.40;99.90
4896;DHT22;2463;49.948;8.472;2022-11-11T09:10:12;8.40;99.90
4896;DHT22;2463;49.948;8.472;2022-11-11T09:12:39;8.30;99.90
4896;DHT22;2463;49.948;8.472;2022-11-11T09:15:06;8.40;99.90
4896;DHT22;2463;49.948;8.472;2022-11-11T09:17:32;8.40;99.90
4896;DHT22;2463;49.948;8.472;2022-11-11T09:19:59;8.40;99.90
4896;DHT22;2463;49.948;8.472;2022-11-11T09:22:26;8.40;99.90
4896;DHT22;2463;49.948;8.472;2022-11-11T09:24:52;8.40;99.90
4896;DHT22;2463;49.948;8.472;2022-11-11T09:27:19;8.30;99.90
4896;DHT22;2463;49.948;8.472;2022-11-11T09:29:46;8.20;99.90
4896;DHT22;2463;49.948;8.472;2022-11-11T09:32:13;8.10;99.90
4896;DHT22;2463;49.948;8.472;2022-11-11T09:34:39;8.10;99.90
4896;DHT22;2463;49.948;8.472;2022-11-11T09:37:06;8.20;99.90
4896;DHT22;2463;49.948;8.472;2022-11-11T09:39:33;8.20;99.90
4896;DHT22;2463;49.948;8.472;2022-11-11T09:45:28;8.00;99.90
4896;DHT22;2463;49.948;8.472;2022-11-11T09:50:51;8.00;99.90
4896;DHT22;2463;49.948;8.472;2022-11-11T09:53:21;7.90;99.90
4896;DHT22;2463;49.948;8.472;2022-11-11T09:55:54;8.00;99.90
4896;DHT22;2463;49.948;8.472;2022-11-11T09:58:32;8.10;99.90
4896;DHT22;2463;49.948;8.472;2022-11-11T10:01:16;8.10;99.90
4896;DHT22;2463;49.948;8.472;2022-11-11T10:04:16;8.20;99.90
4896;DHT22;2463;49.948;8.472;2022-11-11T10:06:38;8.30;99.90
4896;DHT22;2463;49.948;8.472;2022-11-11T10:09:23;8.50;99.90
4896;DHT22;2463;49.948;8.472;2022-11-11T10:12:02;8.60;99.90
4896;DHT22;2463;49.948;8.472;2022-11-11T10:14:34;8.70;99.90
4896;DHT22;2463;49.948;8.472;2022-11-11T10:17:27;8.80;99.90
4896;DHT22;2463;49.948;8.472;2022-11-11T10:22:52;8.90;99.90
4896;DHT22;2463;49.948;8.472;2022-11-11T10:25:25;8.90;99.90
4896;DHT22;2463;49.948;8.472;2022-11-11T10:27:54;8.90;99.90
4896;DHT22;2463;49.948;8.472;2022-11-11T10:30:25;8.90;99.90
4896;DHT22;2463;49.948;8.472;2022-11-11T10:33:19;8.90;99.90
4896;DHT22;2463;49.948;8.472;2022-11-11T10:35:48;8.90;99.90
4896;DHT22;2463;49.948;8.472;2022-11-11T10:38:42;8.90;99.90
4896;DHT22;2463;49.948;8.472;2022-11-11T10:41:20;8.90;99.90
4896;DHT22;2463;49.948;8.472;2022-11-11T10:43:49;8.60;99.90
4896;DHT22;2463;49.948;8.472;2022-11-11T10:46:23;8.60;99.90
4896;DHT22;2463;49.948;8.472;2022-11-11T10:49:09;8.50;99.90
4896;DHT22;2463;49.948;8.472;2022-11-11T10:54:47;8.60;99.90
4896;DHT22;2463;49.948;8.472;2022-11-11T10:57:28;8.60;99.90
4896;DHT22;2463;49.948;8.472;2022-11-11T11:00:04;8.70;99.90
4896;DHT22;2463;49.948;8.472;2022-11-11T11:05:39;8.90;99.90
4896;DHT22;2463;49.948;8.472;2022-11-11T11:08:13;9.10;99.90
4896;DHT22;2463;49.948;8.472;2022-11-11T11:10:44;9.20;99.90
4896;DHT22;2463;49.948;8.472;2022-11-11T11:13:16;9.30;99.90
4896;DHT22;2463;49.948;8.472;2022-11-11T11:15:55;9.30;99.90
4896;DHT22;2463;49.948;8.472;2022-11-11T11:18:24;9.30;99.90
4896;DHT22;2463;49.948;8.472;2022-11-11T11:26:01;9.20;99.90
4896;DHT22;2463;49.948;8.472;2022-11-11T11:28:30;9.10;99.90
4896;DHT22;2463;49.948;8.472;2022-11-11T11:31:05;9.20;99.90
4896;DHT22;2463;49.948;8.472;2022-11-11T11:34:01;9.30;99.90
4896;DHT22;2463;49.948;8.472;2022-11-11T11:36:28;9.40;99.90
4896;DHT22;2463;49.948;8.472;2022-11-11T11:38:55;9.50;99.90
4896;DHT22;2463;49.948;8.472;2022-11-11T11:41:43;9.60;99.90
4896;DHT22;2463;49.948;8.472;2022-11-11T11:47:11;9.70;99.90
4896;DHT22;2463;49.948;8.472;2022-11-11T11:55:14;9.90;99.90
4896;DHT22;2463;49.948;8.472;2022-11-11T12:00:21;10.10;99.90
4896;DHT22;2463;49.948;8.472;2022-11-11T12:06:00;10.10;99.90
4896;DHT22;2463;49.948;8.472;2022-11-11T12:08:44;10.20;99.90
4896;DHT22;2463;49.948;8.472;2022-11-11T12:11:37;10.20;99.90
4896;DHT22;2463;49.948;8.472;2022-11-11T12:14:23;10.20;99.90
4896;DHT22;2463;49.948;8.472;2022-11-11T12:29:57;10.50;99.90
4896;DHT22;2463;49.948;8.472;2022-11-11T12:49:10;10.60;99.90
4896;DHT22;2463;49.948;8.472;2022-11-11T12:54:55;10.40;99.90
4896;DHT22;2463;49.948;8.472;2022-11-11T12:57:38;10.40;99.90
4896;DHT22;2463;49.948;8.472;2022-11-11T13:00:17;10.40;99.90
4896;DHT22;2463;49.948;8.472;2022-11-11T13:03:47;10.40;99.90
4896;DHT22;2463;49.948;8.472;2022-11-11T13:06:12;10.40;99.90
4896;DHT22;2463;49.948;8.472;2022-11-11T13:09:00;10.40;99.90
4896;DHT22;2463;49.948;8.472;2022-11-11T13:14:30;10.40;99.90
4896;DHT22;2463;49.948;8.472;2022-11-11T13:17:00;10.40;99.90
4896;DHT22;2463;49.948;8.472;2022-11-11T13:19:45;10.30;99.90
4896;DHT22;2463;49.948;8.472;2022-11-11T13:22:24;10.30;99.90
4896;DHT22;2463;49.948;8.472;2022-11-11T13:24:52;10.40;99.90
4896;DHT22;2463;49.948;8.472;2022-11-11T13:27:43;10.50;99.90
4896;DHT22;2463;49.948;8.472;2022-11-11T13:33:21;10.50;99.90
4896;DHT22;2463;49.948;8.472;2022-11-11T13:35:56;10.50;99.90
4896;DHT22;2463;49.948;8.472;2022-11-11T13:38:31;10.50;99.90
4896;DHT22;2463;49.948;8.472;2022-11-11T13:41:03;10.60;99.90
4896;DHT22;2463;49.948;8.472;2022-11-11T13:43:46;10.60;99.90
4896;DHT22;2463;49.948;8.472;2022-11-11T13:46:35;10.60;99.90
4896;DHT22;2463;49.948;8.472;2022-11-11T13:49:05;10.70;99.90
4896;DHT22;2463;49.948;8.472;2022-11-11T13:51:42;10.70;99.90
4896;DHT22;2463;49.948;8.472;2022-11-11T13:54:29;10.70;99.90
4896;DHT22;2463;49.948;8.472;2022-11-11T13:57:07;10.70;99.90
4896;DHT22;2463;49.948;8.472;2022-11-11T13:59:39;10.80;99.90
4896;DHT22;2463;49.948;8.472;2022-11-11T14:18:01;10.40;99.90
4896;DHT22;2463;49.948;8.472;2022-11-11T14:25:44;10.40;99.90
4896;DHT22;2463;49.948;8.472;2022-11-11T14:28:27;10.40;99.90
4896;DHT22;2463;49.948;8.472;2022-11-11T14:30:59;10.40;99.90
4896;DHT22;2463;49.948;8.472;2022-11-11T14:33:51;10.50;99.90
4896;DHT22;2463;49.948;8.472;2022-11-11T14:39:32;10.40;99.90
4896;DHT22;2463;49.948;8.472;2022-11-11T14:42:01;10.30;99.90
4896;DHT22;2463;49.948;8.472;2022-11-11T14:44:38;10.20;99.90
4896;DHT22;2463;49.948;8.472;2022-11-11T14:49:59;10.20;99.90
4896;DHT22;2463;49.948;8.472;2022-11-11T14:52:27;10.20;99.90
4896;DHT22;2463;49.948;8.472;2022-11-11T15:00:09;10.20;99.90
4896;DHT22;2463;49.948;8.472;2022-11-11T15:02:50;10.20;99.90
4896;DHT22;2463;49.948;8.472;2022-11-11T15:10:36;10.10;99.90
4896;DHT22;2463;49.948;8.472;2022-11-11T15:13:09;10.10;99.90
4896;DHT22;2463;49.948;8.472;2022-11-11T15:15:48;10.10;99.90
4896;DHT22;2463;49.948;8.472;2022-11-11T15:29:22;9.40;99.90
4896;DHT22;2463;49.948;8.472;2022-11-11T15:32:16;9.20;99.90
4896;DHT22;2463;49.948;8.472;2022-11-11T15:35:07;9.00;99.90
4896;DHT22;2463;49.948;8.472;2022-11-11T15:37:38;9.00;99.90
4896;DHT22;2463;49.948;8.472;2022-11-11T15:40:06;9.00;99.90
4896;DHT22;2463;49.948;8.472;2022-11-11T15:42:38;9.00;99.90
4896;DHT22;2463;49.948;8.472;2022-11-11T15:47:43;9.00;99.90
4896;DHT22;2463;49.948;8.472;2022-11-11T15:52:57;9.00;99.90
4896;DHT22;2463;49.948;8.472;2022-11-11T15:55:34;8.90;99.90
4896;DHT22;2463;49.948;8.472;2022-11-11T15:58:13;8.80;99.90
4896;DHT22;2463;49.948;8.472;2022-11-11T16:00:40;8.60;99.90
4896;DHT22;2463;49.948;8.472;2022-11-11T16:03:28;8.60;99.90
4896;DHT22;2463;49.948;8.472;2022-11-11T16:05:57;8.50;99.90
4896;DHT22;2463;49.948;8.472;2022-11-11T16:08:24;8.50;99.90
4896;DHT22;2463;49.948;8.472;2022-11-11T16:10:57;8.50;99.90
4896;DHT22;2463;49.948;8.472;2022-11-11T16:13:35;8.60;99.90
4896;DHT22;2463;49.948;8.472;2022-11-11T16:18:42;8.80;99.90
4896;DHT22;2463;49.948;8.472;2022-11-11T16:21:13;8.80;99.90
4896;DHT22;2463;49.948;8.472;2022-11-11T16:23:41;8.80;99.90
4896;DHT22;2463;49.948;8.472;2022-11-11T16:26:08;8.80;99.90
4896;DHT22;2463;49.948;8.472;2022-11-11T16:28:41;8.80;99.90
4896;DHT22;2463;49.948;8.472;2022-11-11T16:33:57;8.50;99.90
4896;DHT22;2463;49.948;8.472;2022-11-11T16:36:24;8.40;99.90
4896;DHT22;2463;49.948;8.472;2022-11-11T16:38:50;8.40;99.90
4896;DHT22;2463;49.948;8.472;2022-11-11T16:41:30;8.40;99.90
4896;DHT22;2463;49.948;8.472;2022-11-11T16:43:57;8.40;99.90
4896;DHT22;2463;49.948;8.472;2022-11-11T16:51:47;8.50;99.90
4896;DHT22;2463;49.948;8.472;2022-11-11T16:54:17;8.50;99.90
4896;DHT22;2463;49.948;8.472;2022-11-11T16:56:48;8.60;99.90
4896;DHT22;2463;49.948;8.472;2022-11-11T16:59:23;8.60;99.90
4896;DHT22;2463;49.948;8.472;2022-11-11T17:01:51;8.70;99.90
4896;DHT22;2463;49.948;8.472;2022-11-11T17:04:18;8.80;99.90
4896;DHT22;2463;49.948;8.472;2022-11-11T17:06:56;8.80;99.90
4896;DHT22;2463;49.948;8.472;2022-11-11T17:09:39;8.90;99.90
4896;DHT22;2463;49.948;8.472;2022-11-11T17:12:07;8.90;99.90
4896;DHT22;2463;49.948;8.472;2022-11-11T17:14:36;8.80;99.90
4896;DHT22;2463;49.948;8.472;2022-11-11T17:17:06;8.80;99.90
4896;DHT22;2463;49.948;8.472;2022-11-11T17:19:34;8.80;99.90
4896;DHT22;2463;49.948;8.472;2022-11-11T17:22:05;8.80;99.90
4896;DHT22;2463;49.948;8.472;2022-11-11T17:24:32;8.80;99.90
4896;DHT22;2463;49.948;8.472;2022-11-11T17:26:59;8.80;99.90
4896;DHT22;2463;49.948;8.472;2022-11-11T17:29:26;8.80;99.90
4896;DHT22;2463;49.948;8.472;2022-11-11T17:31:52;8.80;99.90
4896;DHT22;2463;49.948;8.472;2022-11-11T17:34:19;8.80;99.90
4896;DHT22;2463;49.948;8.472;2022-11-11T17:36:46;8.80;99.90
4896;DHT22;2463;49.948;8.472;2022-11-11T17:39:12;8.80;99.90
4896;DHT22;2463;49.948;8.472;2022-11-11T17:41:39;8.80;99.90
4896;DHT22;2463;49.948;8.472;2022-11-11T17:44:06;8.80;99.90
4896;DHT22;2463;49.948;8.472;2022-11-11T17:46:32;8.70;99.90
4896;DHT22;2463;49.948;8.472;2022-11-11T17:48:59;8.70;99.90
4896;DHT22;2463;49.948;8.472;2022-11-11T17:51:26;8.70;99.90
4896;DHT22;2463;49.948;8.472;2022-11-11T17:53:52;8.80;99.90
4896;DHT22;2463;49.948;8.472;2022-11-11T17:56:19;8.80;99.90
4896;DHT22;2463;49.948;8.472;2022-11-11T17:58:46;8.80;99.90
4896;DHT22;2463;49.948;8.472;2022-11-11T18:01:14;8.80;99.90
4896;DHT22;2463;49.948;8.472;2022-11-11T18:03:41;8.90;99.90
4896;DHT22;2463;49.948;8.472;2022-11-11T18:06:09;8.90;99.90
4896;DHT22;2463;49.948;8.472;2022-11-11T18:08:36;8.90;99.90
4896;DHT22;2463;49.948;8.472;2022-11-11T18:11:04;8.90;99.90
4896;DHT22;2463;49.948;8.472;2022-11-11T18:13:31;8.90;99.90
4896;DHT22;2463;49.948;8.472;2022-11-11T18:15:58;9.00;99.90
4896;DHT22;2463;49.948;8.472;2022-11-11T18:18:32;9.00;99.90
4896;DHT22;2463;49.948;8.472;2022-11-11T18:21:03;9.00;99.90
4896;DHT22;2463;49.948;8.472;2022-11-11T18:23:32;9.10;99.90
4896;DHT22;2463;49.948;8.472;2022-11-11T18:25:59;9.10;99.90
4896;DHT22;2463;49.948;8.472;2022-11-11T18:28:36;9.10;99.90
4896;DHT22;2463;49.948;8.472;2022-11-11T18:31:11;9.10;99.90
4896;DHT22;2463;49.948;8.472;2022-11-11T18:33:39;9.10;99.90
4896;DHT22;2463;49.948;8.472;2022-11-11T18:36:17;9.10;99.90
4896;DHT22;2463;49.948;8.472;2022-11-11T18:38:44;9.10;99.90
4896;DHT22;2463;49.948;8.472;2022-11-11T18:41:13;9.10;99.90
4896;DHT22;2463;49.948;8.472;2022-11-11T18:43:42;9.10;99.90
4896;DHT22;2463;49.948;8.472;2022-11-11T18:46:18;9.00;99.90
4896;DHT22;2463;49.948;8.472;2022-11-11T18:48:45;8.90;99.90
4896;DHT22;2463;49.948;8.472;2022-11-11T18:51:14;8.90;99.90
4896;DHT22;2463;49.948;8.472;2022-11-11T18:53:41;8.90;99.90
4896;DHT22;2463;49.948;8.472;2022-11-11T18:56:09;8.80;99.90
4896;DHT22;2463;49.948;8.472;2022-11-11T18:58:37;8.80;99.90
4896;DHT22;2463;49.948;8.472;2022-11-11T19:01:06;8.80;99.90
4896;DHT22;2463;49.948;8.472;2022-11-11T19:03:33;8.80;99.90
4896;DHT22;2463;49.948;8.472;2022-11-11T19:06:02;8.80;99.90
4896;DHT22;2463;49.948;8.472;2022-11-11T19:08:30;8.80;99.90
4896;DHT22;2463;49.948;8.472;2022-11-11T19:10:57;8.80;99.90
4896;DHT22;2463;49.948;8.472;2022-11-11T19:13:24;8.80;99.90
4896;DHT22;2463;49.948;8.472;2022-11-11T19:15:52;8.80;99.90
4896;DHT22;2463;49.948;8.472;2022-11-11T19:18:19;8.70;99.90